Startpagina
METAR-TAF:

METAR-TAF

Vliegvelden :

Baden-Baden, Duitsland

breedte: 48-46-43N, lengte: 008-04-47E, hoogte: 124 m

Actueel weer

Dit bericht is 38 minuten geleden gemaakt, om 04:50 UTC
Wind 4 kt uit het westzuidwesten, variërend tussen het zuiden en het westnoordwesten
Temperatuur 11°C
Vochtigheid 87%
Druk 1003 hPa
Zicht 10 km of meer
Weinig wolken op 2400 ft
Geheel bewolkt op 4100 ft

METAR: EDSB 060450Z 24004KT 180V290 9999 FEW024 OVC041 11/09 Q1003

Tijdstip: 07:28 (05:28 UTC)

Verwachting

Dit bericht is 2 uur en het 28 minuten geleden gemaakt, om 03:00 UTC
Verwachting geldig van 06 om 04 UTC tot 06 om 24 UTC
Wind 8 kt uit het zuidzuidwesten
Zicht 10 km of meer
Gebroken wolken op 3500 ft
Tijdelijke
van 06 om 04 UTC tot 06 om 15 UTC
Zicht: 4000 m
Gebroken wolken op 700 ft
regen

TAF: EDSB 060300Z 0604/0624 20008KT 9999 BKN035 TEMPO 0604/0615 4000 RA BKN007

Waarnemingen en weersverwachtingen van meer dan 4000 vliegvelden (METAR en TAF).

De beschikbare stations zijn de gele en rode punten op de kaart.

Ga met uw muis naar het station om de naam te zien.

Klik dan om waarnemingen en weersverwachtingen te zien.

kaart wijzigen: klik op de groene knoppen met een zwart kruis om in te zoomen, op de groene knop met een streepje om uit te zoomen of op de groene pijlen voor aangrenzende kaarten.


METAR-TAF: